Terminal Aerodrome Forecast
Issued by NWS

Home | Current Version | Previous Version | Graphics & Text | Print | Product List | Glossary On
Versions: 1 2 3 4 5 6 7 8 9 10 11 12 13 14 15 16 17
000
FTUS43 KGRB 201246 AAA
TAFCWA
TAF AMD
KCWA 201246Z 2013/2112 09011KT 1 1/2SM RA OVC002
      TEMPO 2013/2015 5SM -DZ BR OVC005
     FM201500 27006KT 6SM BR VCSH OVC006
     FM201800 28012G22KT P6SM OVC012
     FM202300 30012G21KT P6SM SCT020 OVC035=

USA.gov is the U.S. government's official web portal to all federal, state and local government web resources and services.